Terminal Aerodrome Forecast
Issued by NWS

Home | Current Version | Previous Version | Graphics & Text | Print | Product List | Glossary On
Versions: 1 2 3 4 5 6 7 8 9 10 11 12 13 14 15 16 17
000
FTUS43 KBIS 252330
TAFDIK
TAF
KDIK 252330Z 2600/2624 30016KT P6SM SCT030
     FM260200 30009KT P6SM BKN140
     FM260600 27007KT P6SM FEW250
     FM261700 27010KT P6SM BKN140=

USA.gov is the U.S. government's official web portal to all federal, state and local government web resources and services.